createdAt,value
2022-07-28T00:00:41.383Z,0.85
2022-07-28T00:03:07.760Z,0.90
2022-07-28T00:05:34.535Z,0.85
2022-07-28T00:08:01.039Z,1.08
2022-07-28T00:10:27.589Z,1.00
2022-07-28T00:12:53.964Z,1.00
2022-07-28T00:15:20.522Z,1.17
2022-07-28T00:17:46.901Z,1.38
2022-07-28T00:20:13.320Z,0.90
2022-07-28T00:22:43.312Z,1.05
2022-07-28T00:25:10.501Z,1.00
2022-07-28T00:27:37.575Z,0.90
2022-07-28T00:30:06.186Z,1.10
2022-07-28T00:32:33.274Z,0.93
2022-07-28T00:35:00.449Z,1.13
2022-07-28T00:37:27.112Z,0.93
2022-07-28T00:39:53.534Z,0.90
2022-07-28T00:42:21.044Z,1.08
2022-07-28T00:44:47.926Z,0.85
2022-07-28T00:47:14.678Z,1.17
2022-07-28T00:49:41.540Z,0.85
2022-07-28T00:52:11.012Z,1.00
2022-07-28T00:54:37.462Z,0.95
2022-07-28T00:57:04.390Z,1.17
2022-07-28T00:59:31.358Z,1.17
2022-07-28T01:02:01.867Z,1.08
2022-07-28T01:04:29.493Z,0.95
2022-07-28T01:07:04.773Z,1.20
2022-07-28T01:09:58.852Z,1.10
2022-07-28T01:12:56.659Z,1.20
2022-07-28T01:15:43.616Z,1.10
2022-07-28T01:18:20.332Z,1.00
2022-07-28T01:21:08.566Z,1.08
2022-07-28T01:24:12.260Z,1.05
2022-07-28T01:26:50.137Z,0.80
2022-07-28T01:29:43.153Z,1.23
2022-07-28T01:32:18.663Z,1.08
2022-07-28T01:34:50.836Z,0.93
2022-07-28T01:37:23.157Z,1.10
2022-07-28T01:39:53.252Z,1.02
2022-07-28T01:42:23.935Z,0.88
2022-07-28T01:44:53.391Z,1.05
2022-07-28T01:47:21.742Z,1.10
2022-07-28T01:49:50.330Z,1.15
2022-07-28T01:52:19.075Z,1.13
2022-07-28T01:54:47.700Z,1.10
2022-07-28T01:57:17.828Z,0.90
2022-07-28T01:59:46.330Z,1.05
2022-07-28T02:02:15.875Z,0.98
2022-07-28T02:04:44.375Z,0.90
2022-07-28T02:07:12.369Z,0.80
2022-07-28T02:09:40.451Z,1.13
2022-07-28T02:12:09.204Z,1.27
2022-07-28T02:14:37.076Z,1.10
2022-07-28T02:17:12.686Z,1.27
2022-07-28T02:22:07.974Z,1.13
2022-07-28T02:24:35.286Z,1.10
2022-07-28T02:27:19.102Z,1.33
2022-07-28T02:29:51.490Z,1.60
2022-07-28T02:32:27.921Z,1.33
2022-07-28T02:35:00.732Z,1.10
2022-07-28T02:37:33.198Z,1.40
2022-07-28T02:40:02.877Z,1.02
2022-07-28T02:42:33.440Z,1.05
2022-07-28T02:45:06.722Z,1.17
2022-07-28T02:47:39.419Z,1.25
2022-07-28T02:50:07.510Z,1.30
2022-07-28T02:52:35.535Z,1.33
2022-07-28T02:55:03.332Z,1.40
2022-07-28T02:57:30.978Z,1.33
2022-07-28T02:59:58.362Z,1.15
2022-07-28T03:02:25.092Z,1.20
2022-07-28T03:04:59.525Z,1.30
2022-07-28T03:07:28.177Z,1.20
2022-07-28T03:09:55.326Z,1.23
2022-07-28T03:12:21.722Z,1.00
2022-07-28T03:14:49.046Z,1.05
2022-07-28T03:17:15.815Z,1.30
2022-07-28T03:19:42.503Z,1.00
2022-07-28T03:22:10.438Z,1.17
2022-07-28T03:24:40.258Z,1.27
2022-07-28T03:27:27.708Z,1.33
2022-07-28T03:30:03.893Z,1.27
2022-07-28T03:32:34.707Z,1.00
2022-07-28T03:35:01.216Z,1.20
2022-07-28T03:37:33.597Z,1.30
2022-07-28T03:40:00.875Z,1.00
2022-07-28T03:42:29.012Z,1.35
2022-07-28T03:44:56.138Z,1.40
2022-07-28T03:47:24.509Z,1.50
2022-07-28T03:49:51.389Z,1.40
2022-07-28T03:52:18.638Z,1.25
2022-07-28T03:54:45.907Z,1.45
2022-07-28T03:57:13.935Z,1.40
2022-07-28T03:59:40.307Z,1.38
2022-07-28T04:02:06.979Z,1.45
2022-07-28T04:04:33.711Z,1.20
2022-07-28T04:07:00.090Z,1.27
2022-07-28T04:09:26.535Z,1.10
2022-07-28T04:11:52.903Z,2.65
2022-07-28T04:14:19.566Z,1.20
2022-07-28T04:16:46.235Z,1.27
2022-07-28T04:19:12.683Z,1.30
2022-07-28T04:21:39.058Z,1.48
2022-07-28T04:24:06.014Z,0.90
2022-07-28T04:26:32.416Z,1.33
2022-07-28T04:28:58.794Z,1.10
2022-07-28T04:31:30.014Z,1.20
2022-07-28T04:33:56.411Z,1.30
2022-07-28T04:36:22.828Z,1.35
2022-07-28T04:38:49.213Z,1.10
2022-07-28T04:41:15.561Z,1.38
2022-07-28T04:43:42.016Z,1.02
2022-07-28T04:46:11.933Z,1.38
2022-07-28T04:48:41.170Z,1.17
2022-07-28T04:51:07.619Z,1.33
2022-07-28T04:53:33.952Z,1.33
2022-07-28T04:56:00.305Z,1.25
2022-07-28T04:58:30.825Z,1.23
2022-07-28T05:00:57.774Z,1.27
2022-07-28T05:03:24.338Z,1.33
2022-07-28T05:05:54.050Z,1.30
2022-07-28T05:08:22.112Z,1.23
2022-07-28T05:10:52.798Z,1.38
2022-07-28T05:13:19.133Z,1.40
2022-07-28T05:15:45.482Z,1.77
2022-07-28T05:18:11.876Z,1.20
2022-07-28T05:20:38.259Z,0.98
2022-07-28T05:23:04.622Z,1.20
2022-07-28T05:25:31.131Z,1.20
2022-07-28T05:27:57.596Z,1.30
2022-07-28T05:30:24.162Z,1.25
2022-07-28T05:32:50.986Z,1.95
2022-07-28T05:35:17.388Z,1.90
2022-07-28T05:37:43.937Z,1.38
2022-07-28T05:40:15.753Z,1.70
2022-07-28T05:42:43.339Z,1.27
2022-07-28T05:45:15.695Z,1.33
2022-07-28T05:47:49.961Z,1.15
2022-07-28T05:50:17.909Z,1.08
2022-07-28T05:52:45.063Z,1.20
2022-07-28T05:55:12.269Z,1.50
2022-07-28T05:57:39.425Z,1.20
2022-07-28T06:00:09.137Z,1.60
2022-07-28T06:02:35.859Z,1.10
2022-07-28T06:05:02.710Z,1.48
2022-07-28T06:07:42.757Z,1.33
2022-07-28T06:10:12.379Z,1.52
2022-07-28T06:12:47.250Z,0.98
2022-07-28T06:15:15.830Z,1.60
2022-07-28T06:17:42.430Z,1.40
2022-07-28T06:20:10.301Z,1.17
2022-07-28T06:22:48.930Z,1.10
2022-07-28T06:25:21.145Z,1.48
2022-07-28T06:27:49.292Z,1.02
2022-07-28T06:30:16.639Z,1.33
2022-07-28T06:32:44.044Z,0.88
2022-07-28T06:35:11.986Z,1.25
2022-07-28T06:37:38.361Z,1.73
2022-07-28T06:40:06.007Z,1.30
2022-07-28T06:42:33.278Z,0.98
2022-07-28T06:45:00.139Z,1.40
2022-07-28T06:47:27.087Z,1.17
2022-07-28T06:49:53.536Z,1.40
2022-07-28T06:52:20.736Z,1.33
2022-07-28T06:54:48.678Z,1.30
2022-07-28T06:57:15.382Z,1.65
2022-07-28T06:59:43.431Z,1.08
2022-07-28T07:02:10.145Z,1.40
2022-07-28T07:04:36.568Z,1.27
2022-07-28T07:07:03.727Z,1.42
2022-07-28T07:09:41.289Z,1.30
2022-07-28T07:12:07.736Z,1.13
2022-07-28T07:14:34.135Z,1.20
2022-07-28T07:17:00.510Z,2.20
2022-07-28T07:19:27.148Z,1.40
2022-07-28T07:21:53.614Z,1.30
2022-07-28T07:24:19.998Z,1.35
2022-07-28T07:26:48.851Z,1.77
2022-07-28T07:29:15.245Z,1.67
2022-07-28T07:31:41.777Z,1.17
2022-07-28T07:34:08.364Z,1.30
2022-07-28T07:36:34.781Z,1.23
2022-07-28T07:39:01.225Z,1.50
2022-07-28T07:41:27.563Z,1.58
2022-07-28T07:43:53.926Z,1.63
2022-07-28T07:46:20.326Z,3.42
2022-07-28T07:48:46.812Z,1.70
2022-07-28T07:51:15.557Z,1.60
2022-07-28T07:53:42.123Z,1.65
2022-07-28T07:56:08.486Z,1.60
2022-07-28T07:58:34.868Z,1.60
2022-07-28T08:01:01.289Z,1.92
2022-07-28T08:03:27.631Z,2.47
2022-07-28T08:05:56.550Z,1.60
2022-07-28T08:08:24.096Z,1.58
2022-07-28T08:10:51.005Z,1.63
2022-07-28T08:13:20.271Z,1.58
2022-07-28T08:15:47.135Z,1.50
2022-07-28T08:18:13.653Z,1.58
2022-07-28T08:20:40.069Z,1.70
2022-07-28T08:23:08.082Z,1.75
2022-07-28T08:25:37.887Z,1.50
2022-07-28T08:28:04.530Z,1.67
2022-07-28T08:30:33.009Z,2.50
2022-07-28T08:33:00.172Z,1.98
2022-07-28T08:35:35.282Z,1.80
2022-07-28T08:38:06.035Z,2.00
2022-07-28T08:40:32.867Z,1.88
2022-07-28T08:43:03.266Z,1.70
2022-07-28T08:45:32.536Z,2.00
2022-07-28T08:48:09.486Z,2.70
2022-07-28T08:50:38.174Z,2.63
2022-07-28T08:53:06.171Z,2.35
2022-07-28T08:55:35.816Z,2.65
2022-07-28T08:58:03.489Z,2.85
2022-07-28T09:00:30.063Z,2.38
2022-07-28T09:02:57.058Z,2.85
2022-07-28T09:05:24.209Z,2.75
2022-07-28T09:07:54.691Z,2.47
2022-07-28T09:10:21.965Z,3.10
2022-07-28T09:12:48.488Z,3.13
2022-07-28T09:15:14.873Z,3.08
2022-07-28T09:17:42.003Z,2.92
2022-07-28T09:20:11.206Z,3.03
2022-07-28T09:22:56.119Z,2.95
2022-07-28T09:25:22.770Z,3.00
2022-07-28T09:27:49.363Z,3.30
2022-07-28T09:30:15.730Z,3.10
2022-07-28T09:32:42.247Z,2.88
2022-07-28T09:35:19.584Z,2.75
2022-07-28T09:37:46.409Z,2.85
2022-07-28T09:40:13.726Z,3.25
2022-07-28T09:42:50.004Z,3.00
2022-07-28T09:45:24.910Z,3.10
2022-07-28T09:48:12.607Z,2.92
2022-07-28T09:50:40.718Z,2.72
2022-07-28T09:53:27.600Z,2.80
2022-07-28T09:58:27.447Z,2.85
2022-07-28T10:01:09.280Z,3.00
2022-07-28T10:03:40.316Z,2.42
2022-07-28T10:06:11.427Z,2.67
2022-07-28T10:08:43.283Z,2.47
2022-07-28T10:11:11.112Z,2.15
2022-07-28T10:13:52.501Z,2.60
2022-07-28T10:16:20.879Z,2.80
2022-07-28T10:18:48.385Z,2.10
2022-07-28T10:21:18.305Z,2.30
2022-07-28T10:23:48.042Z,2.17
2022-07-28T10:26:15.102Z,2.45
2022-07-28T10:28:48.106Z,2.15
2022-07-28T10:31:21.549Z,2.05
2022-07-28T10:33:53.355Z,2.00
2022-07-28T10:36:24.979Z,1.88
2022-07-28T10:38:58.310Z,2.30
2022-07-28T10:41:30.025Z,2.10
2022-07-28T10:43:57.048Z,1.83
2022-07-28T10:46:25.612Z,2.30
2022-07-28T10:48:52.737Z,1.90
2022-07-28T10:51:21.200Z,1.88
2022-07-28T10:56:45.047Z,2.25
2022-07-28T10:59:28.868Z,1.80
2022-07-28T11:01:55.717Z,2.65
2022-07-28T11:04:40.806Z,2.10
2022-07-28T11:07:18.086Z,2.15
2022-07-28T11:09:47.358Z,1.92
2022-07-28T11:12:15.378Z,2.25
2022-07-28T11:14:43.064Z,2.00
2022-07-28T11:17:11.248Z,1.88
2022-07-28T11:19:55.710Z,1.92
2022-07-28T11:22:30.317Z,2.13
2022-07-28T11:24:58.683Z,1.90
2022-07-28T11:27:40.698Z,2.00
2022-07-28T11:30:36.525Z,2.35
2022-07-28T11:33:04.914Z,2.03
2022-07-28T11:35:53.020Z,2.13
2022-07-28T11:38:19.793Z,2.35
2022-07-28T11:40:51.917Z,2.80
2022-07-28T11:43:22.172Z,2.35
2022-07-28T11:46:01.329Z,2.20
2022-07-28T11:48:29.628Z,2.65
2022-07-28T11:51:05.416Z,2.55
2022-07-28T11:53:36.756Z,2.38
2022-07-28T11:56:08.164Z,2.58
2022-07-28T11:58:35.185Z,2.30
2022-07-28T12:01:19.502Z,2.40
2022-07-28T12:03:56.945Z,2.58
2022-07-28T12:06:35.300Z,2.60
2022-07-28T12:09:04.993Z,2.22
2022-07-28T12:11:34.498Z,2.35
2022-07-28T12:14:12.172Z,2.47
2022-07-28T12:16:41.349Z,2.42
2022-07-28T12:19:10.053Z,2.50
2022-07-28T12:21:47.832Z,2.60
2022-07-28T12:24:19.357Z,2.22
2022-07-28T12:26:49.460Z,2.30
2022-07-28T12:29:17.172Z,2.40
2022-07-28T12:31:54.262Z,2.50
2022-07-28T12:34:21.973Z,1.83
2022-07-28T12:36:57.114Z,1.77
2022-07-28T12:39:25.515Z,1.73
2022-07-28T12:44:38.563Z,1.80
2022-07-28T12:47:08.067Z,2.00
2022-07-28T12:49:36.177Z,2.03
2022-07-28T12:52:22.892Z,1.85
2022-07-28T12:54:53.636Z,2.00
2022-07-28T12:57:48.830Z,1.73
2022-07-28T13:00:19.365Z,1.92
2022-07-28T13:02:46.392Z,1.80
2022-07-28T13:05:30.938Z,2.08
2022-07-28T13:08:02.781Z,1.95
2022-07-28T13:10:30.128Z,2.03
2022-07-28T13:15:34.267Z,2.20
2022-07-28T13:18:00.960Z,2.10
2022-07-28T13:20:27.827Z,1.65
2022-07-28T13:22:55.742Z,1.92
2022-07-28T13:25:22.219Z,2.13
2022-07-28T13:27:55.121Z,2.17
2022-07-28T13:30:23.206Z,2.00
2022-07-28T13:32:49.799Z,2.35
2022-07-28T13:35:19.209Z,2.08
2022-07-28T13:37:47.484Z,2.03
2022-07-28T13:40:14.728Z,2.38
2022-07-28T13:42:41.527Z,2.40
2022-07-28T13:45:21.398Z,2.05
2022-07-28T13:47:48.779Z,2.45
2022-07-28T13:50:19.298Z,2.17
2022-07-28T13:52:45.761Z,2.38
2022-07-28T13:55:12.230Z,2.40
2022-07-28T13:57:42.952Z,2.10
2022-07-28T14:00:10.342Z,2.55
2022-07-28T14:02:38.662Z,2.28
2022-07-28T14:05:11.328Z,1.77
2022-07-28T14:07:37.937Z,2.40
2022-07-28T14:10:07.133Z,1.90
2022-07-28T14:12:34.181Z,2.10
2022-07-28T14:15:08.467Z,2.10
2022-07-28T14:17:43.344Z,2.28
2022-07-28T14:20:12.281Z,2.45
2022-07-28T14:22:38.915Z,2.25
2022-07-28T14:25:05.718Z,2.35
2022-07-28T14:27:32.496Z,2.00
2022-07-28T14:29:58.884Z,2.00
2022-07-28T14:32:25.377Z,2.38
2022-07-28T14:34:51.764Z,2.10
2022-07-28T14:37:19.921Z,2.53
2022-07-28T14:39:46.329Z,2.15
2022-07-28T14:42:12.762Z,2.60
2022-07-28T14:44:39.184Z,1.90
2022-07-28T14:47:07.224Z,2.35
2022-07-28T14:49:34.958Z,2.35
2022-07-28T14:52:01.861Z,2.20
2022-07-28T14:54:45.716Z,1.85
2022-07-28T14:57:18.119Z,2.28
2022-07-28T14:59:44.572Z,2.00
2022-07-28T15:02:11.227Z,1.98
2022-07-28T15:04:37.707Z,2.47
2022-07-28T15:07:04.089Z,2.42
2022-07-28T15:09:30.526Z,2.17
2022-07-28T15:11:56.899Z,2.05
2022-07-28T15:14:24.084Z,2.40
2022-07-28T15:16:50.906Z,2.25
2022-07-28T15:19:17.491Z,2.10
2022-07-28T15:21:45.613Z,2.25
2022-07-28T15:24:12.407Z,2.13
2022-07-28T15:26:39.384Z,2.40
2022-07-28T15:29:06.829Z,2.40
2022-07-28T15:31:33.279Z,2.13
2022-07-28T15:33:59.720Z,2.08
2022-07-28T15:36:27.245Z,2.00
2022-07-28T15:38:54.140Z,1.85
2022-07-28T15:41:20.776Z,2.30
2022-07-28T15:43:47.428Z,2.08
2022-07-28T15:46:15.287Z,2.00
2022-07-28T15:48:43.903Z,2.38
2022-07-28T15:51:10.795Z,2.20
2022-07-28T15:53:37.594Z,2.63
2022-07-28T15:56:04.710Z,2.38
2022-07-28T15:58:31.737Z,2.25
2022-07-28T16:00:59.381Z,2.03
2022-07-28T16:03:28.739Z,2.40
2022-07-28T16:05:55.171Z,2.10
2022-07-28T16:08:22.820Z,2.55
2022-07-28T16:10:51.454Z,2.10
2022-07-28T16:13:31.180Z,2.08
2022-07-28T16:16:03.916Z,1.77
2022-07-28T16:18:30.310Z,2.55
2022-07-28T16:20:56.734Z,2.10
2022-07-28T16:23:23.092Z,2.10
2022-07-28T16:25:49.594Z,2.08
2022-07-28T16:28:16.106Z,2.20
2022-07-28T16:30:42.497Z,1.80
2022-07-28T16:33:09.018Z,2.15
2022-07-28T16:35:35.495Z,2.00
2022-07-28T16:38:03.698Z,2.33
2022-07-28T16:40:31.282Z,2.00
2022-07-28T16:43:02.394Z,2.08
2022-07-28T16:45:30.999Z,2.03
2022-07-28T16:47:58.015Z,1.88
2022-07-28T16:50:24.640Z,2.17
2022-07-28T16:52:52.024Z,2.38
2022-07-28T16:55:23.405Z,1.80
2022-07-28T16:57:51.031Z,2.13
2022-07-28T17:00:18.099Z,2.17
2022-07-28T17:02:44.857Z,2.45
2022-07-28T17:05:11.996Z,2.30
2022-07-28T17:07:45.336Z,2.05
2022-07-28T17:10:14.701Z,2.40
2022-07-28T17:15:20.007Z,2.10
2022-07-28T17:17:48.939Z,1.95
2022-07-28T17:20:16.448Z,2.47
2022-07-28T17:22:43.126Z,2.00
2022-07-28T17:25:28.594Z,2.20
2022-07-28T17:27:56.090Z,1.92
2022-07-28T17:30:22.459Z,2.13
2022-07-28T17:32:48.858Z,2.33
2022-07-28T17:35:31.625Z,1.77
2022-07-28T17:38:01.320Z,2.10
2022-07-28T17:40:27.874Z,2.00
2022-07-28T17:42:54.392Z,2.20
2022-07-28T17:45:20.916Z,2.30
2022-07-28T17:47:47.554Z,1.90
2022-07-28T17:50:13.967Z,1.80
2022-07-28T17:52:43.047Z,2.30
2022-07-28T17:55:28.696Z,1.88
2022-07-28T17:57:57.536Z,2.15
2022-07-28T18:00:24.155Z,2.15
2022-07-28T18:02:50.758Z,2.10
2022-07-28T18:05:17.833Z,1.88
2022-07-28T18:07:51.210Z,2.10
2022-07-28T18:10:24.565Z,2.20
2022-07-28T18:12:51.749Z,2.00
2022-07-28T18:15:18.767Z,2.05
2022-07-28T18:17:54.972Z,2.22
2022-07-28T18:20:22.805Z,2.25
2022-07-28T18:22:49.260Z,1.77
2022-07-28T18:25:15.757Z,2.03
2022-07-28T18:27:42.462Z,1.52
2022-07-28T18:30:09.706Z,2.17
2022-07-28T18:32:36.126Z,2.15
2022-07-28T18:35:02.563Z,2.00
2022-07-28T18:37:30.893Z,2.03
2022-07-28T18:39:57.784Z,2.17
2022-07-28T18:42:24.454Z,2.00
2022-07-28T18:44:50.915Z,1.90
2022-07-28T18:47:17.262Z,2.00
2022-07-28T18:49:43.682Z,2.05
2022-07-28T18:52:10.420Z,2.00
2022-07-28T18:54:36.996Z,2.10
2022-07-28T18:57:03.494Z,2.05
2022-07-28T18:59:29.920Z,2.03
2022-07-28T19:01:56.558Z,2.47
2022-07-28T19:04:24.023Z,2.15
2022-07-28T19:06:50.542Z,2.08
2022-07-28T19:09:19.840Z,2.20
2022-07-28T19:11:46.934Z,1.73
2022-07-28T19:14:14.776Z,2.15
2022-07-28T19:16:41.734Z,2.10
2022-07-28T19:19:08.192Z,1.90
2022-07-28T19:21:34.901Z,1.85
2022-07-28T19:24:01.792Z,2.00
2022-07-28T19:26:28.824Z,2.08
2022-07-28T19:28:55.636Z,1.90
2022-07-28T19:31:22.323Z,2.28
2022-07-28T19:33:49.190Z,2.20
2022-07-28T19:36:15.874Z,2.30
2022-07-28T19:38:43.849Z,1.77
2022-07-28T19:41:12.893Z,2.28
2022-07-28T19:43:39.615Z,2.05
2022-07-28T19:46:06.475Z,1.80
2022-07-28T19:48:34.310Z,2.30
2022-07-28T19:51:01.256Z,2.30
2022-07-28T19:53:31.871Z,2.28
2022-07-28T19:55:58.982Z,1.83
2022-07-28T19:58:25.954Z,1.80
2022-07-28T20:00:52.417Z,2.33
2022-07-28T20:04:01.825Z,2.10
2022-07-28T20:06:07.040Z,1.88
2022-07-28T20:08:33.542Z,1.92
2022-07-28T20:10:59.927Z,2.28
2022-07-28T20:13:26.286Z,2.03
2022-07-28T20:15:52.627Z,2.17
2022-07-28T20:18:19.591Z,2.25
2022-07-28T20:20:47.494Z,2.30
2022-07-28T20:23:14.720Z,2.22
2022-07-28T20:25:42.149Z,2.15
2022-07-28T20:28:08.865Z,2.03
2022-07-28T20:30:35.472Z,2.50
2022-07-28T20:33:02.467Z,2.28
2022-07-28T20:35:28.943Z,2.35
2022-07-28T20:37:55.295Z,2.38
2022-07-28T20:40:21.749Z,2.13
2022-07-28T20:42:52.666Z,2.40
2022-07-28T20:45:19.843Z,2.38
2022-07-28T20:47:46.176Z,2.13
2022-07-28T20:50:14.488Z,2.38
2022-07-28T20:52:41.477Z,2.10
2022-07-28T20:55:08.835Z,2.13
2022-07-28T20:57:35.292Z,2.65
2022-07-28T21:00:01.665Z,2.42
2022-07-28T21:02:28.068Z,2.08
2022-07-28T21:04:54.604Z,2.15
2022-07-28T21:08:00.022Z,2.65
2022-07-28T21:10:09.635Z,2.47
2022-07-28T21:12:37.120Z,2.42
2022-07-28T21:15:08.228Z,3.15
2022-07-28T21:17:34.836Z,2.10
2022-07-28T21:20:01.687Z,2.58
2022-07-28T21:22:28.255Z,2.72
2022-07-28T21:24:55.610Z,2.83
2022-07-28T21:27:22.727Z,2.72
2022-07-28T21:29:49.248Z,2.35
2022-07-28T21:32:15.611Z,2.53
2022-07-28T21:34:42.136Z,2.30
2022-07-28T21:37:08.817Z,2.45
2022-07-28T21:39:36.919Z,2.53
2022-07-28T21:42:07.554Z,2.40
2022-07-28T21:44:34.708Z,2.13
2022-07-28T21:47:01.073Z,2.08
2022-07-28T21:49:29.102Z,2.08
2022-07-28T21:51:55.561Z,2.47
2022-07-28T21:54:21.964Z,2.33
2022-07-28T21:56:48.415Z,2.58
2022-07-28T21:59:14.829Z,2.45
2022-07-28T22:01:41.303Z,2.35
2022-07-28T22:04:07.681Z,3.38
2022-07-28T22:06:34.075Z,2.60
2022-07-28T22:09:00.422Z,2.20
2022-07-28T22:11:26.805Z,2.80
2022-07-28T22:13:53.261Z,2.55
2022-07-28T22:16:19.682Z,2.30
2022-07-28T22:18:46.119Z,2.10
2022-07-28T22:21:12.591Z,2.35
2022-07-28T22:23:41.323Z,2.00
2022-07-28T22:26:08.033Z,2.20
2022-07-28T22:28:34.476Z,2.17
2022-07-28T22:31:09.229Z,2.22
2022-07-28T22:33:40.092Z,2.40
2022-07-28T22:36:08.489Z,2.03
2022-07-28T22:38:35.177Z,2.20
2022-07-28T22:41:01.558Z,2.70
2022-07-28T22:43:27.919Z,2.42
2022-07-28T22:45:54.509Z,2.50
2022-07-28T22:48:20.965Z,2.63
2022-07-28T22:50:47.349Z,2.55
2022-07-28T22:53:13.723Z,2.35
2022-07-28T22:55:40.365Z,2.55
2022-07-28T22:58:06.763Z,2.72
2022-07-28T23:00:36.181Z,2.63
2022-07-28T23:03:03.484Z,2.45
2022-07-28T23:05:30.620Z,2.47
2022-07-28T23:07:58.716Z,2.70
2022-07-28T23:10:25.943Z,2.60
2022-07-28T23:12:52.335Z,2.38
2022-07-28T23:15:18.735Z,2.53
2022-07-28T23:17:45.163Z,2.00
2022-07-28T23:20:11.769Z,2.58
2022-07-28T23:22:38.170Z,2.28
2022-07-28T23:25:05.112Z,2.30
2022-07-28T23:27:31.538Z,2.47
2022-07-28T23:29:57.989Z,2.50
2022-07-28T23:32:24.360Z,2.60
2022-07-28T23:34:50.848Z,2.25
2022-07-28T23:37:17.287Z,2.35
2022-07-28T23:39:43.755Z,2.47
2022-07-28T23:42:10.177Z,2.60
2022-07-28T23:44:37.985Z,2.38
2022-07-28T23:47:04.558Z,2.67
2022-07-28T23:49:31.145Z,2.88
2022-07-28T23:51:57.589Z,2.88
2022-07-28T23:54:24.013Z,2.97
2022-07-28T23:56:51.856Z,2.97
2022-07-28T23:59:18.251Z,2.85
